sensor_id;sensor_type;location;lat;lon;timestamp;pressure;altitude;pressure_sealevel;temperature;humidity
62402;BME280;48440;51.224;22.506;2023-03-18T00:00:42;99835.06;;;2.63;48.30
62402;BME280;48440;51.224;22.506;2023-03-18T00:10:05;99836.72;;;2.64;48.38
62402;BME280;48440;51.224;22.506;2023-03-18T00:17:32;99832.53;;;2.55;48.58
62402;BME280;48440;51.224;22.506;2023-03-18T00:19:58;99832.16;;;2.58;48.86
62402;BME280;48440;51.224;22.506;2023-03-18T00:30:16;99823.84;;;2.53;48.99
62402;BME280;48440;51.224;22.506;2023-03-18T00:33:08;99821.72;;;2.49;49.15
62402;BME280;48440;51.224;22.506;2023-03-18T00:39:34;99814.63;;;2.41;49.74
62402;BME280;48440;51.224;22.506;2023-03-18T00:52:08;99815.16;;;2.30;50.57
62402;BME280;48440;51.224;22.506;2023-03-18T01:05:34;99799.06;;;2.30;50.73
62402;BME280;48440;51.224;22.506;2023-03-18T01:12:19;99787.06;;;2.26;50.68
62402;BME280;48440;51.224;22.506;2023-03-18T01:15:17;99778.03;;;2.27;50.84
62402;BME280;48440;51.224;22.506;2023-03-18T01:25:38;99776.81;;;2.29;50.81
62402;BME280;48440;51.224;22.506;2023-03-18T01:31:40;99771.19;;;2.24;50.78
62402;BME280;48440;51.224;22.506;2023-03-18T01:34:38;99770.81;;;2.27;50.56
62402;BME280;48440;51.224;22.506;2023-03-18T01:37:11;99768.53;;;2.24;50.71
62402;BME280;48440;51.224;22.506;2023-03-18T01:39:36;99770.63;;;2.29;50.69
62402;BME280;48440;51.224;22.506;2023-03-18T01:42:02;99769.84;;;2.35;50.57
62402;BME280;48440;51.224;22.506;2023-03-18T01:44:29;99762.63;;;2.35;50.34
62402;BME280;48440;51.224;22.506;2023-03-18T01:46:55;99770.31;;;2.38;50.43
62402;BME280;48440;51.224;22.506;2023-03-18T01:49:32;99762.06;;;2.40;51.02
62402;BME280;48440;51.224;22.506;2023-03-18T01:52:06;99770.56;;;2.44;50.97
62402;BME280;48440;51.224;22.506;2023-03-18T01:54:36;99762.06;;;2.40;50.94
62402;BME280;48440;51.224;22.506;2023-03-18T01:57:04;99759.78;;;2.37;51.25
62402;BME280;48440;51.224;22.506;2023-03-18T01:59:32;99761.19;;;2.33;51.41
62402;BME280;48440;51.224;22.506;2023-03-18T02:02:06;99767.75;;;2.30;51.30
62402;BME280;48440;51.224;22.506;2023-03-18T02:04:40;99770.81;;;2.27;52.04
62402;BME280;48440;51.224;22.506;2023-03-18T02:07:06;99772.47;;;2.28;52.13
62402;BME280;48440;51.224;22.506;2023-03-18T02:09:37;99769.34;;;2.25;51.77
62402;BME280;48440;51.224;22.506;2023-03-18T02:12:04;99769.72;;;2.22;52.17
62402;BME280;48440;51.224;22.506;2023-03-18T02:14:30;99765.38;;;2.21;52.22
62402;BME280;48440;51.224;22.506;2023-03-18T02:17:02;99771.75;;;2.20;52.39
62402;BME280;48440;51.224;22.506;2023-03-18T02:22:28;99769.91;;;2.20;52.62
62402;BME280;48440;51.224;22.506;2023-03-18T02:25:10;99771.50;;;2.15;52.75
62402;BME280;48440;51.224;22.506;2023-03-18T02:27:42;99783.03;;;2.15;52.80
62402;BME280;48440;51.224;22.506;2023-03-18T02:30:13;99774.16;;;2.15;52.86
62402;BME280;48440;51.224;22.506;2023-03-18T02:32:41;99772.88;;;2.11;53.15
62402;BME280;48440;51.224;22.506;2023-03-18T02:35:10;99765.88;;;2.10;53.21
62402;BME280;48440;51.224;22.506;2023-03-18T02:37:36;99775.31;;;2.06;53.20
62402;BME280;48440;51.224;22.506;2023-03-18T02:40:25;99772.81;;;2.04;53.65
62402;BME280;48440;51.224;22.506;2023-03-18T02:42:51;99766.19;;;2.00;53.63
62402;BME280;48440;51.224;22.506;2023-03-18T02:45:38;99769.25;;;1.97;53.68
62402;BME280;48440;51.224;22.506;2023-03-18T02:48:10;99769.41;;;1.95;53.65
62402;BME280;48440;51.224;22.506;2023-03-18T02:50:38;99762.78;;;1.91;53.69
62402;BME280;48440;51.224;22.506;2023-03-18T02:53:04;99766.09;;;1.93;54.02
62402;BME280;48440;51.224;22.506;2023-03-18T02:55:29;99776.81;;;1.93;53.81
62402;BME280;48440;51.224;22.506;2023-03-18T02:57:55;99759.84;;;1.86;53.99
62402;BME280;48440;51.224;22.506;2023-03-18T03:00:21;99769.53;;;1.87;54.26
62402;BME280;48440;51.224;22.506;2023-03-18T03:02:47;99761.31;;;1.89;54.06
62402;BME280;48440;51.224;22.506;2023-03-18T03:05:12;99767.66;;;1.88;54.06
62402;BME280;48440;51.224;22.506;2023-03-18T03:07:37;99767.66;;;1.88;54.34
62402;BME280;48440;51.224;22.506;2023-03-18T03:10:05;99763.53;;;1.85;54.19
62402;BME280;48440;51.224;22.506;2023-03-18T03:12:31;99756.78;;;1.89;54.15
62402;BME280;48440;51.224;22.506;2023-03-18T03:14:56;99762.03;;;1.83;54.35
62402;BME280;48440;51.224;22.506;2023-03-18T03:17:22;99770.00;;;1.76;54.40
62402;BME280;48440;51.224;22.506;2023-03-18T03:19:48;99765.69;;;1.75;54.40
62402;BME280;48440;51.224;22.506;2023-03-18T03:22:17;99763.56;;;1.70;54.21
62402;BME280;48440;51.224;22.506;2023-03-18T03:24:43;99761.53;;;1.73;54.19
62402;BME280;48440;51.224;22.506;2023-03-18T03:27:09;99767.63;;;1.66;54.13
62402;BME280;48440;51.224;22.506;2023-03-18T03:29:35;99770.00;;;1.61;54.41
62402;BME280;48440;51.224;22.506;2023-03-18T03:32:01;99768.63;;;1.65;54.21
62402;BME280;48440;51.224;22.506;2023-03-18T03:34:27;99765.97;;;1.65;54.29
62402;BME280;48440;51.224;22.506;2023-03-18T03:36:52;99773.69;;;1.60;54.02
62402;BME280;48440;51.224;22.506;2023-03-18T03:39:18;99766.03;;;1.57;54.67
62402;BME280;48440;51.224;22.506;2023-03-18T03:41:43;99769.13;;;1.54;54.57
62402;BME280;48440;51.224;22.506;2023-03-18T03:44:08;99764.78;;;1.53;54.61
62402;BME280;48440;51.224;22.506;2023-03-18T03:46:34;99763.50;;;1.49;54.32
62402;BME280;48440;51.224;22.506;2023-03-18T03:49:00;99763.38;;;1.43;54.56
62402;BME280;48440;51.224;22.506;2023-03-18T03:51:25;99756.66;;;1.47;54.61
62402;BME280;48440;51.224;22.506;2023-03-18T03:53:52;99756.38;;;1.42;54.42
62402;BME280;48440;51.224;22.506;2023-03-18T03:56:18;99754.53;;;1.42;54.64
62402;BME280;48440;51.224;22.506;2023-03-18T03:58:43;99749.56;;;1.39;55.03
62402;BME280;48440;51.224;22.506;2023-03-18T04:01:10;99753.88;;;1.40;55.04
62402;BME280;48440;51.224;22.506;2023-03-18T04:03:35;99759.59;;;1.37;54.85
62402;BME280;48440;51.224;22.506;2023-03-18T04:06:01;99748.16;;;1.43;54.94
62402;BME280;48440;51.224;22.506;2023-03-18T04:08:26;99748.16;;;1.43;54.94
62402;BME280;48440;51.224;22.506;2023-03-18T04:10:52;99743.47;;;1.45;54.99
62402;BME280;48440;51.224;22.506;2023-03-18T04:13:17;99755.38;;;1.43;54.81
62402;BME280;48440;51.224;22.506;2023-03-18T04:15:43;99742.00;;;1.43;54.93
62402;BME280;48440;51.224;22.506;2023-03-18T04:18:09;99745.88;;;1.40;55.02
62402;BME280;48440;51.224;22.506;2023-03-18T04:20:36;99746.41;;;1.35;55.06
62402;BME280;48440;51.224;22.506;2023-03-18T04:23:02;99750.09;;;1.34;54.89
62402;BME280;48440;51.224;22.506;2023-03-18T04:25:28;99747.16;;;1.29;55.15
62402;BME280;48440;51.224;22.506;2023-03-18T04:27:54;99751.59;;;1.22;55.01
62402;BME280;48440;51.224;22.506;2023-03-18T04:30:21;99748.56;;;1.25;55.26
62402;BME280;48440;51.224;22.506;2023-03-18T04:32:48;99756.94;;;1.22;55.31
62402;BME280;48440;51.224;22.506;2023-03-18T04:35:15;99752.13;;;1.18;55.39
62402;BME280;48440;51.224;22.506;2023-03-18T04:37:41;99753.31;;;1.15;55.23
62402;BME280;48440;51.224;22.506;2023-03-18T04:40:07;99757.13;;;1.21;55.23
62402;BME280;48440;51.224;22.506;2023-03-18T04:42:34;99749.09;;;1.21;55.21
62402;BME280;48440;51.224;22.506;2023-03-18T04:44:59;99743.34;;;1.09;55.51
62402;BME280;48440;51.224;22.506;2023-03-18T04:47:26;99753.78;;;1.19;55.50
62402;BME280;48440;51.224;22.506;2023-03-18T04:49:54;99751.66;;;1.14;55.41
62402;BME280;48440;51.224;22.506;2023-03-18T04:52:19;99745.13;;;1.17;55.51
62402;BME280;48440;51.224;22.506;2023-03-18T04:54:45;99745.31;;;1.15;55.67
62402;BME280;48440;51.224;22.506;2023-03-18T04:57:11;99749.63;;;1.16;55.57
62402;BME280;48440;51.224;22.506;2023-03-18T04:59:36;99740.25;;;1.20;55.27
62402;BME280;48440;51.224;22.506;2023-03-18T05:02:02;99735.44;;;1.16;55.42
62402;BME280;48440;51.224;22.506;2023-03-18T05:04:28;99738.41;;;1.21;55.46
62402;BME280;48440;51.224;22.506;2023-03-18T05:06:54;99734.06;;;1.20;55.27
62402;BME280;48440;51.224;22.506;2023-03-18T05:09:19;99732.13;;;1.14;55.55
62402;BME280;48440;51.224;22.506;2023-03-18T05:11:45;99737.09;;;1.17;55.64
62402;BME280;48440;51.224;22.506;2023-03-18T05:14:10;99738.59;;;1.19;55.52
62402;BME280;48440;51.224;22.506;2023-03-18T05:16:36;99738.41;;;1.21;55.19
62402;BME280;48440;51.224;22.506;2023-03-18T05:19:02;99733.81;;;1.29;54.84
62402;BME280;48440;51.224;22.506;2023-03-18T05:21:27;99734.88;;;1.35;54.70
62402;BME280;48440;51.224;22.506;2023-03-18T05:23:53;99732.69;;;1.39;54.42
62402;BME280;48440;51.224;22.506;2023-03-18T05:26:18;99735.81;;;1.42;54.77
62402;BME280;48440;51.224;22.506;2023-03-18T05:28:44;99742.28;;;1.48;54.48
62402;BME280;48440;51.224;22.506;2023-03-18T05:31:09;99744.59;;;1.51;54.29
62402;BME280;48440;51.224;22.506;2023-03-18T05:33:35;99739.59;;;1.48;53.96
62402;BME280;48440;51.224;22.506;2023-03-18T05:36:00;99747.31;;;1.57;53.70
62402;BME280;48440;51.224;22.506;2023-03-18T05:38:26;99748.63;;;1.61;53.43
62402;BME280;48440;51.224;22.506;2023-03-18T05:40:52;99744.09;;;1.62;53.38
62402;BME280;48440;51.224;22.506;2023-03-18T05:43:18;99746.94;;;1.60;53.10
62402;BME280;48440;51.224;22.506;2023-03-18T05:45:46;99748.69;;;1.68;53.00
62402;BME280;48440;51.224;22.506;2023-03-18T05:48:13;99742.06;;;1.79;52.56
62402;BME280;48440;51.224;22.506;2023-03-18T05:50:40;99748.47;;;1.84;52.40
62402;BME280;48440;51.224;22.506;2023-03-18T05:53:07;99745.06;;;1.90;52.18
62402;BME280;48440;51.224;22.506;2023-03-18T05:55:33;99750.31;;;1.98;51.55
62402;BME280;48440;51.224;22.506;2023-03-18T05:57:59;99755.75;;;2.05;51.44
62402;BME280;48440;51.224;22.506;2023-03-18T06:00:26;99748.38;;;2.07;50.94
62402;BME280;48440;51.224;22.506;2023-03-18T06:02:53;99742.59;;;2.10;50.45
62402;BME280;48440;51.224;22.506;2023-03-18T06:05:20;99754.47;;;2.22;50.66
62402;BME280;48440;51.224;22.506;2023-03-18T06:07:46;99756.03;;;2.31;50.07
62402;BME280;48440;51.224;22.506;2023-03-18T06:10:11;99754.41;;;2.37;50.01
62402;BME280;48440;51.224;22.506;2023-03-18T06:12:38;99748.88;;;2.38;49.44
62402;BME280;48440;51.224;22.506;2023-03-18T06:15:06;99751.69;;;2.52;49.38
62402;BME280;48440;51.224;22.506;2023-03-18T06:17:32;99743.94;;;2.63;49.05
62402;BME280;48440;51.224;22.506;2023-03-18T06:19:58;99748.66;;;2.83;48.77
62402;BME280;48440;51.224;22.506;2023-03-18T06:22:24;99750.59;;;3.23;47.98
62402;BME280;48440;51.224;22.506;2023-03-18T06:24:51;99747.28;;;3.56;46.63
62402;BME280;48440;51.224;22.506;2023-03-18T06:27:16;99755.03;;;3.79;46.00
62402;BME280;48440;51.224;22.506;2023-03-18T06:29:42;99750.16;;;3.95;45.09
62402;BME280;48440;51.224;22.506;2023-03-18T06:32:08;99748.38;;;4.29;44.47
62402;BME280;48440;51.224;22.506;2023-03-18T06:34:34;99739.75;;;4.73;43.98
62402;BME280;48440;51.224;22.506;2023-03-18T06:37:00;99740.16;;;5.03;42.57
62402;BME280;48440;51.224;22.506;2023-03-18T06:39:29;99735.78;;;5.35;41.74
62402;BME280;48440;51.224;22.506;2023-03-18T06:41:55;99743.09;;;5.79;40.64
62402;BME280;48440;51.224;22.506;2023-03-18T06:44:21;99747.03;;;5.96;39.82
62402;BME280;48440;51.224;22.506;2023-03-18T06:46:47;99746.44;;;6.26;39.02
62402;BME280;48440;51.224;22.506;2023-03-18T06:49:13;99741.88;;;6.58;38.44
62402;BME280;48440;51.224;22.506;2023-03-18T06:51:40;99742.09;;;6.88;37.44
62402;BME280;48440;51.224;22.506;2023-03-18T06:54:06;99753.63;;;6.70;36.82
62402;BME280;48440;51.224;22.506;2023-03-18T06:56:34;99751.97;;;6.37;37.15
62402;BME280;48440;51.224;22.506;2023-03-18T06:59:02;99740.66;;;6.54;37.29
62402;BME280;48440;51.224;22.506;2023-03-18T07:01:28;99744.56;;;6.89;36.92
62402;BME280;48440;51.224;22.506;2023-03-18T07:03:54;99743.47;;;6.97;36.55
62402;BME280;48440;51.224;22.506;2023-03-18T07:06:20;99745.66;;;7.49;35.73
62402;BME280;48440;51.224;22.506;2023-03-18T07:08:46;99735.25;;;7.28;35.93
62402;BME280;48440;51.224;22.506;2023-03-18T07:11:17;99729.88;;;7.83;35.26
62402;BME280;48440;51.224;22.506;2023-03-18T07:13:43;99734.91;;;7.98;34.56
62402;BME280;48440;51.224;22.506;2023-03-18T07:16:11;99732.00;;;8.29;33.49
62402;BME280;48440;51.224;22.506;2023-03-18T07:18:36;99743.72;;;8.23;33.67
62402;BME280;48440;51.224;22.506;2023-03-18T07:21:06;99742.16;;;8.15;33.43
62402;BME280;48440;51.224;22.506;2023-03-18T07:23:58;99738.06;;;7.95;33.33
62402;BME280;48440;51.224;22.506;2023-03-18T07:26:24;99743.72;;;8.23;33.29
62402;BME280;48440;51.224;22.506;2023-03-18T07:28:53;99751.41;;;8.08;33.15
62402;BME280;48440;51.224;22.506;2023-03-18T07:31:38;99739.13;;;8.42;32.81
62402;BME280;48440;51.224;22.506;2023-03-18T07:34:54;99746.81;;;8.27;32.39
62402;BME280;48440;51.224;22.506;2023-03-18T07:38:00;99738.41;;;8.16;32.63
62402;BME280;48440;51.224;22.506;2023-03-18T07:40:28;99734.19;;;8.80;31.90
62402;BME280;48440;51.224;22.506;2023-03-18T07:42:59;99745.28;;;9.02;31.18
62402;BME280;48440;51.224;22.506;2023-03-18T07:45:25;99760.69;;;8.48;31.92
62402;BME280;48440;51.224;22.506;2023-03-18T07:47:51;99753.47;;;8.84;31.51
62402;BME280;48440;51.224;22.506;2023-03-18T07:50:16;99733.75;;;9.07;31.03
62402;BME280;48440;51.224;22.506;2023-03-18T07:52:42;99762.72;;;8.65;31.69
62402;BME280;48440;51.224;22.506;2023-03-18T07:55:10;99731.75;;;8.49;32.28
62402;BME280;48440;51.224;22.506;2023-03-18T07:57:36;99729.16;;;9.19;31.61
62402;BME280;48440;51.224;22.506;2023-03-18T08:00:04;99726.69;;;9.29;30.99
62402;BME280;48440;51.224;22.506;2023-03-18T08:02:30;99718.28;;;9.54;30.84
62402;BME280;48440;51.224;22.506;2023-03-18T08:04:58;99722.50;;;9.62;30.39
62402;BME280;48440;51.224;22.506;2023-03-18T08:07:47;99713.81;;;10.00;30.38
62402;BME280;48440;51.224;22.506;2023-03-18T08:10:15;99718.38;;;9.71;30.29
62402;BME280;48440;51.224;22.506;2023-03-18T08:12:41;99717.31;;;9.83;29.88
62402;BME280;48440;51.224;22.506;2023-03-18T08:15:10;99717.38;;;9.13;30.95
62402;BME280;48440;51.224;22.506;2023-03-18T08:17:37;99716.00;;;9.74;30.72
62402;BME280;48440;51.224;22.506;2023-03-18T08:20:03;99736.44;;;9.42;30.52
62402;BME280;48440;51.224;22.506;2023-03-18T08:22:29;99748.56;;;9.39;30.67
62402;BME280;48440;51.224;22.506;2023-03-18T08:24:54;99709.72;;;9.22;30.93
62402;BME280;48440;51.224;22.506;2023-03-18T08:27:22;99727.38;;;9.13;31.30
62402;BME280;48440;51.224;22.506;2023-03-18T08:29:48;99740.19;;;8.82;31.46
62402;BME280;48440;51.224;22.506;2023-03-18T08:32:14;99732.56;;;9.26;31.62
62402;BME280;48440;51.224;22.506;2023-03-18T08:34:41;99720.84;;;9.72;31.05
62402;BME280;48440;51.224;22.506;2023-03-18T08:37:10;99712.81;;;10.29;30.33
62402;BME280;48440;51.224;22.506;2023-03-18T08:39:36;99726.28;;;10.41;29.61
62402;BME280;48440;51.224;22.506;2023-03-18T08:42:02;99724.84;;;10.67;29.84
62402;BME280;48440;51.224;22.506;2023-03-18T08:44:28;99709.25;;;11.07;29.68
62402;BME280;48440;51.224;22.506;2023-03-18T08:46:55;99719.84;;;10.75;29.35
62402;BME280;48440;51.224;22.506;2023-03-18T08:49:22;99717.31;;;11.02;29.61
62402;BME280;48440;51.224;22.506;2023-03-18T08:52:04;99720.66;;;10.59;29.88
62402;BME280;48440;51.224;22.506;2023-03-18T09:01:10;99708.00;;;10.98;30.46
62402;BME280;48440;51.224;22.506;2023-03-18T09:04:07;99703.91;;;10.96;30.14
62402;BME280;48440;51.224;22.506;2023-03-18T09:13:34;99704.97;;;10.61;30.78
62402;BME280;48440;51.224;22.506;2023-03-18T09:33:20;99708.19;;;10.75;31.13
62402;BME280;48440;51.224;22.506;2023-03-18T09:39:38;99691.25;;;11.40;31.04
62402;BME280;48440;51.224;22.506;2023-03-18T09:49:08;99688.25;;;11.58;29.75
62402;BME280;48440;51.224;22.506;2023-03-18T09:58:23;99687.81;;;11.28;29.82
62402;BME280;48440;51.224;22.506;2023-03-18T10:00:59;99683.66;;;11.03;30.25
62402;BME280;48440;51.224;22.506;2023-03-18T10:04:14;99667.81;;;11.34;30.32
62402;BME280;48440;51.224;22.506;2023-03-18T10:06:42;99679.38;;;11.46;29.66
62402;BME280;48440;51.224;22.506;2023-03-18T10:09:37;99668.56;;;11.51;30.12
62402;BME280;48440;51.224;22.506;2023-03-18T10:12:13;99672.00;;;11.63;30.35
62402;BME280;48440;51.224;22.506;2023-03-18T10:17:42;99667.66;;;11.84;29.84
62402;BME280;48440;51.224;22.506;2023-03-18T10:20:34;99679.69;;;11.49;30.05
62402;BME280;48440;51.224;22.506;2023-03-18T10:23:10;99670.94;;;11.64;29.65
62402;BME280;48440;51.224;22.506;2023-03-18T10:25:51;99662.88;;;11.31;29.78
62402;BME280;48440;51.224;22.506;2023-03-18T10:28:43;99656.13;;;11.33;29.57
62402;BME280;48440;51.224;22.506;2023-03-18T10:33:54;99653.00;;;11.46;29.23
62402;BME280;48440;51.224;22.506;2023-03-18T10:38:52;99645.59;;;11.80;29.62
62402;BME280;48440;51.224;22.506;2023-03-18T10:41:26;99651.22;;;12.22;29.46
62402;BME280;48440;51.224;22.506;2023-03-18T10:43:54;99649.06;;;12.24;29.06
62402;BME280;48440;51.224;22.506;2023-03-18T10:46:22;99643.97;;;12.33;28.60
62402;BME280;48440;51.224;22.506;2023-03-18T10:48:53;99661.34;;;11.78;28.97
62402;BME280;48440;51.224;22.506;2023-03-18T10:51:42;99644.25;;;11.61;29.16
62402;BME280;48440;51.224;22.506;2023-03-18T10:54:15;99642.53;;;11.55;29.19
62402;BME280;48440;51.224;22.506;2023-03-18T10:56:44;99635.72;;;11.52;29.55
62402;BME280;48440;51.224;22.506;2023-03-18T10:59:15;99665.59;;;11.31;29.47
62402;BME280;48440;51.224;22.506;2023-03-18T11:01:45;99643.59;;;10.94;29.70
62402;BME280;48440;51.224;22.506;2023-03-18T11:04:15;99639.56;;;10.79;29.23
62402;BME280;48440;51.224;22.506;2023-03-18T11:06:51;99639.63;;;11.01;30.18
62402;BME280;48440;51.224;22.506;2023-03-18T11:09:21;99634.19;;;11.40;29.94
62402;BME280;48440;51.224;22.506;2023-03-18T11:11:50;99638.09;;;11.49;28.52
62402;BME280;48440;51.224;22.506;2023-03-18T11:14:28;99633.34;;;11.17;28.39
62402;BME280;48440;51.224;22.506;2023-03-18T11:17:05;99631.31;;;11.08;28.55
62402;BME280;48440;51.224;22.506;2023-03-18T11:19:48;99630.44;;;10.85;28.01
62402;BME280;48440;51.224;22.506;2023-03-18T11:22:22;99643.53;;;10.88;27.92
62402;BME280;48440;51.224;22.506;2023-03-18T11:25:15;99630.66;;;11.01;28.15
62402;BME280;48440;51.224;22.506;2023-03-18T11:27:50;99628.63;;;10.74;28.33
62402;BME280;48440;51.224;22.506;2023-03-18T11:30:22;99624.19;;;10.68;28.17
62402;BME280;48440;51.224;22.506;2023-03-18T11:35:22;99609.78;;;10.68;27.88
62402;BME280;48440;51.224;22.506;2023-03-18T11:37:48;99616.28;;;10.83;28.58
62402;BME280;48440;51.224;22.506;2023-03-18T11:42:59;99606.97;;;10.96;28.59
62402;BME280;48440;51.224;22.506;2023-03-18T11:47:51;99606.47;;;10.99;29.29
62402;BME280;48440;51.224;22.506;2023-03-18T11:50:20;99597.00;;;11.02;29.67
62402;BME280;48440;51.224;22.506;2023-03-18T11:53:14;99593.47;;;11.01;30.77
62402;BME280;48440;51.224;22.506;2023-03-18T11:56:29;99584.75;;;10.99;31.53
62402;BME280;48440;51.224;22.506;2023-03-18T11:58:45;99609.72;;;10.79;30.44
62402;BME280;48440;51.224;22.506;2023-03-18T12:07:46;99591.88;;;10.83;32.63
62402;BME280;48440;51.224;22.506;2023-03-18T12:10:35;99591.13;;;10.71;32.63
62402;BME280;48440;51.224;22.506;2023-03-18T12:16:33;99582.06;;;10.66;28.00
62402;BME280;48440;51.224;22.506;2023-03-18T12:28:02;99579.44;;;10.71;28.57
62402;BME280;48440;51.224;22.506;2023-03-18T12:33:47;99585.00;;;10.59;32.08
62402;BME280;48440;51.224;22.506;2023-03-18T12:36:17;99574.94;;;10.43;30.29
62402;BME280;48440;51.224;22.506;2023-03-18T12:39:02;99569.63;;;10.31;30.39
62402;BME280;48440;51.224;22.506;2023-03-18T12:42:17;99579.53;;;10.42;30.07
62402;BME280;48440;51.224;22.506;2023-03-18T12:47:22;99571.75;;;10.46;27.80
62402;BME280;48440;51.224;22.506;2023-03-18T12:50:21;99562.94;;;10.56;28.03
62402;BME280;48440;51.224;22.506;2023-03-18T12:52:45;99551.50;;;10.53;27.80
62402;BME280;48440;51.224;22.506;2023-03-18T12:55:39;99567.56;;;10.55;29.26
62402;BME280;48440;51.224;22.506;2023-03-18T12:58:10;99563.44;;;10.52;32.15
62402;BME280;48440;51.224;22.506;2023-03-18T13:01:04;99549.88;;;10.52;32.75
62402;BME280;48440;51.224;22.506;2023-03-18T13:03:37;99551.59;;;10.59;33.20
62402;BME280;48440;51.224;22.506;2023-03-18T13:11:48;99541.06;;;10.45;30.23
62402;BME280;48440;51.224;22.506;2023-03-18T13:17:03;99536.06;;;10.54;28.69
62402;BME280;48440;51.224;22.506;2023-03-18T13:19:29;99531.78;;;10.58;30.21
62402;BME280;48440;51.224;22.506;2023-03-18T13:27:33;99539.09;;;10.58;29.20
62402;BME280;48440;51.224;22.506;2023-03-18T13:32:40;99531.88;;;10.46;28.19
62402;BME280;48440;51.224;22.506;2023-03-18T13:43:16;99512.28;;;10.44;28.58
62402;BME280;48440;51.224;22.506;2023-03-18T13:45:46;99518.72;;;10.55;28.46
62402;BME280;48440;51.224;22.506;2023-03-18T13:48:33;99512.47;;;10.54;28.22
62402;BME280;48440;51.224;22.506;2023-03-18T13:51:28;99513.03;;;10.57;28.67
62402;BME280;48440;51.224;22.506;2023-03-18T13:54:13;99512.22;;;10.56;28.89
62402;BME280;48440;51.224;22.506;2023-03-18T14:02:40;99499.72;;;10.55;28.82
62402;BME280;48440;51.224;22.506;2023-03-18T14:05:36;99506.22;;;10.54;28.41
62402;BME280;48440;51.224;22.506;2023-03-18T14:13:50;99518.72;;;10.55;28.53
62402;BME280;48440;51.224;22.506;2023-03-18T14:21:45;99494.78;;;10.52;27.70
62402;BME280;48440;51.224;22.506;2023-03-18T14:32:02;99475.06;;;10.40;27.66
62402;BME280;48440;51.224;22.506;2023-03-18T14:34:34;99484.78;;;10.36;28.16
62402;BME280;48440;51.224;22.506;2023-03-18T14:37:23;99473.97;;;10.41;28.70
62402;BME280;48440;51.224;22.506;2023-03-18T14:39:51;99478.28;;;10.37;28.29
62402;BME280;48440;51.224;22.506;2023-03-18T14:42:26;99478.53;;;10.35;28.63
62402;BME280;48440;51.224;22.506;2023-03-18T14:44:55;99470.97;;;10.37;28.68
62402;BME280;48440;51.224;22.506;2023-03-18T14:47:53;99477.28;;;10.43;29.00
62402;BME280;48440;51.224;22.506;2023-03-18T14:50:40;99478.09;;;10.43;29.22
62402;BME280;48440;51.224;22.506;2023-03-18T14:53:12;99469.97;;;10.43;28.37
62402;BME280;48440;51.224;22.506;2023-03-18T14:55:41;99482.69;;;10.43;28.49
62402;BME280;48440;51.224;22.506;2023-03-18T14:58:16;99467.44;;;10.37;28.61
62402;BME280;48440;51.224;22.506;2023-03-18T15:00:42;99466.91;;;10.40;28.33
62402;BME280;48440;51.224;22.506;2023-03-18T15:03:24;99475.38;;;10.43;28.59
62402;BME280;48440;51.224;22.506;2023-03-18T15:05:55;99474.81;;;10.41;28.76
62402;BME280;48440;51.224;22.506;2023-03-18T15:08:25;99466.13;;;10.39;28.49
62402;BME280;48440;51.224;22.506;2023-03-18T15:10:52;99470.97;;;10.37;28.71
62402;BME280;48440;51.224;22.506;2023-03-18T15:13:21;99472.03;;;10.36;28.91
62402;BME280;48440;51.224;22.506;2023-03-18T15:15:52;99474.50;;;10.38;29.00
62402;BME280;48440;51.224;22.506;2023-03-18T15:18:30;99466.28;;;10.33;29.69
62402;BME280;48440;51.224;22.506;2023-03-18T15:21:11;99469.81;;;10.33;29.41
62402;BME280;48440;51.224;22.506;2023-03-18T15:23:49;99485.53;;;10.31;29.56
62402;BME280;48440;51.224;22.506;2023-03-18T15:26:22;99474.09;;;10.29;29.35
62402;BME280;48440;51.224;22.506;2023-03-18T15:28:52;99474.09;;;10.29;29.14
62402;BME280;48440;51.224;22.506;2023-03-18T15:34:17;99472.13;;;10.25;29.36
62402;BME280;48440;51.224;22.506;2023-03-18T15:36:58;99482.78;;;10.14;29.42
62402;BME280;48440;51.224;22.506;2023-03-18T15:42:02;99475.16;;;10.11;30.04
62402;BME280;48440;51.224;22.506;2023-03-18T15:44:34;99474.09;;;10.12;30.19
62402;BME280;48440;51.224;22.506;2023-03-18T15:49:48;99471.88;;;10.09;30.64
62402;BME280;48440;51.224;22.506;2023-03-18T15:52:15;99478.63;;;10.07;30.60
62402;BME280;48440;51.224;22.506;2023-03-18T15:54:41;99477.94;;;10.00;30.72
62402;BME280;48440;51.224;22.506;2023-03-18T15:57:27;99477.03;;;9.94;31.17
62402;BME280;48440;51.224;22.506;2023-03-18T15:59:53;99477.38;;;9.98;31.46
62402;BME280;48440;51.224;22.506;2023-03-18T16:02:39;99479.50;;;9.96;31.35
62402;BME280;48440;51.224;22.506;2023-03-18T16:05:17;99476.69;;;9.91;31.30
62402;BME280;48440;51.224;22.506;2023-03-18T16:07:43;99475.06;;;9.90;31.54
62402;BME280;48440;51.224;22.506;2023-03-18T16:10:09;99474.19;;;9.84;31.94
62402;BME280;48440;51.224;22.506;2023-03-18T16:12:35;99477.38;;;9.81;32.12
62402;BME280;48440;51.224;22.506;2023-03-18T16:15:05;99478.44;;;9.80;31.93
62402;BME280;48440;51.224;22.506;2023-03-18T16:17:31;99475.06;;;9.73;32.28
62402;BME280;48440;51.224;22.506;2023-03-18T16:19:58;99482.84;;;9.69;32.56
62402;BME280;48440;51.224;22.506;2023-03-18T16:22:24;99486.78;;;9.62;32.66
62402;BME280;48440;51.224;22.506;2023-03-18T16:24:50;99485.97;;;9.61;32.87
62402;BME280;48440;51.224;22.506;2023-03-18T16:27:32;99478.00;;;9.55;33.49
62402;BME280;48440;51.224;22.506;2023-03-18T16:30:00;99479.06;;;9.53;33.50
62402;BME280;48440;51.224;22.506;2023-03-18T16:32:26;99485.53;;;9.52;33.54
62402;BME280;48440;51.224;22.506;2023-03-18T16:34:52;99483.31;;;9.49;33.68
62402;BME280;48440;51.224;22.506;2023-03-18T16:37:23;99493.72;;;9.41;33.64
62402;BME280;48440;51.224;22.506;2023-03-18T16:39:50;99491.50;;;9.38;33.55
62402;BME280;48440;51.224;22.506;2023-03-18T16:42:16;99487.66;;;9.34;34.37
62402;BME280;48440;51.224;22.506;2023-03-18T16:44:42;99482.72;;;9.31;34.10
62402;BME280;48440;51.224;22.506;2023-03-18T16:47:20;99491.78;;;9.25;34.29